createdAt,value
2023-04-14T00:04:39.521Z,28.9
2023-04-14T00:10:31.670Z,28
2023-04-14T00:16:24.373Z,27.1
2023-04-14T00:22:17.168Z,26.3
2023-04-14T00:28:08.029Z,25.1
2023-04-14T00:33:45.049Z,31.6
2023-04-14T00:39:36.712Z,31.8
2023-04-14T00:45:28.397Z,30.6
2023-04-14T00:51:19.984Z,29.6
2023-04-14T00:56:56.893Z,28.7
2023-04-14T01:08:27.075Z,27.1
2023-04-14T01:14:18.660Z,26.3
2023-04-14T01:20:10.815Z,25.2
2023-04-14T01:25:46.448Z,31.8
2023-04-14T01:31:38.664Z,31.6
2023-04-14T01:37:30.550Z,30.4
2023-04-14T01:43:22.151Z,29.5
2023-04-14T01:48:59.699Z,28.6
2023-04-14T01:54:51.940Z,27.8
2023-04-14T02:00:43.505Z,26.9
2023-04-14T02:06:36.682Z,26.1
2023-04-14T02:12:27.978Z,27
2023-04-14T02:18:18.880Z,32.4
2023-04-14T02:24:10.768Z,31.4
2023-04-14T02:30:01.672Z,30.3
2023-04-14T02:35:52.772Z,29.4
2023-04-14T02:41:44.151Z,28.4
2023-04-14T02:47:35.666Z,27.6
2023-04-14T02:53:26.832Z,26.8
2023-04-14T02:59:18.984Z,26
2023-04-14T03:05:11.737Z,28.9
2023-04-14T03:11:02.421Z,32.8
2023-04-14T03:16:38.802Z,31.1
2023-04-14T03:22:14.402Z,30.1
2023-04-14T03:28:06.800Z,29.1
2023-04-14T03:33:58.719Z,28.3
2023-04-14T03:39:50.810Z,27.4
2023-04-14T03:45:43.045Z,26.6
2023-04-14T03:51:38.711Z,25.8
2023-04-14T03:57:32.351Z,30.1
2023-04-14T04:03:25.890Z,32.3
2023-04-14T04:09:19.156Z,30.9
2023-04-14T04:15:11.721Z,29.9
2023-04-14T04:21:03.759Z,28.9
2023-04-14T04:26:55.167Z,28.1
2023-04-14T04:33:02.443Z,27.2
2023-04-14T04:38:54.148Z,26.4
2023-04-14T04:44:30.531Z,25.6
2023-04-14T04:50:06.589Z,31.1
2023-04-14T04:55:42.063Z,31.9
2023-04-14T05:01:05.011Z,30.7
2023-04-14T05:06:41.911Z,29.8
2023-04-14T05:12:20.549Z,28.9
2023-04-14T05:17:57.514Z,28
2023-04-14T05:23:33.270Z,27.2
2023-04-14T05:29:47.640Z,26.4
2023-04-14T05:35:11.957Z,25.7
2023-04-14T05:40:48.208Z,31.1
2023-04-14T05:46:40.525Z,32.1
2023-04-14T05:52:16.846Z,30.7
2023-04-14T05:57:54.112Z,29.8
2023-04-14T06:03:51.266Z,28.9
2023-04-14T06:09:28.990Z,27.9
2023-04-14T06:15:20.316Z,27.1
2023-04-14T06:20:41.324Z,26.3
2023-04-14T06:26:32.902Z,25.6
2023-04-14T06:32:09.594Z,31.6
2023-04-14T06:38:14.306Z,31.9
2023-04-14T06:44:05.759Z,30.4
2023-04-14T06:49:59.261Z,29.4
2023-04-14T06:55:51.072Z,28.4
2023-04-14T07:01:43.354Z,27.6
2023-04-14T07:07:37.497Z,26.8
2023-04-14T07:13:29.365Z,26
2023-04-14T07:19:07.769Z,31.3
2023-04-14T07:24:58.873Z,32.3
2023-04-14T07:31:04.102Z,30.3
2023-04-14T07:37:07.974Z,29.3
2023-04-14T07:42:43.936Z,28.3
2023-04-14T07:48:36.336Z,27.5
2023-04-14T07:54:28.745Z,26.7
2023-04-14T08:00:12.673Z,29.8
2023-04-14T08:06:06.061Z,32.8
2023-04-14T08:11:42.458Z,30.6
2023-04-14T08:17:03.051Z,29.6
2023-04-14T08:22:39.469Z,28.8
2023-04-14T08:28:16.413Z,27.1
2023-04-14T08:34:08.829Z,33.3
2023-04-14T08:41:00.066Z,31.1
2023-04-14T08:46:52.665Z,29.8
2023-04-14T08:52:30.523Z,28.9
2023-04-14T08:58:22.468Z,28
2023-04-14T09:04:17.666Z,33.4
2023-04-14T09:10:09.980Z,31.2
2023-04-14T09:16:00.739Z,30
2023-04-14T09:23:48.400Z,29.1
2023-04-14T09:29:23.987Z,27.9
2023-04-14T09:35:00.364Z,27.2
2023-04-14T09:40:51.891Z,26.4
2023-04-14T09:46:28.107Z,25.8
2023-04-14T09:52:19.658Z,25.3
2023-04-14T09:58:13.170Z,24.8
2023-04-14T10:04:07.192Z,24.4
2023-04-14T10:09:43.926Z,24
2023-04-14T10:15:35.521Z,23.7
2023-04-14T10:21:27.588Z,23.4
2023-04-14T10:27:20.619Z,23.3
2023-04-14T10:33:14.937Z,23
2023-04-14T10:38:51.151Z,22.8
2023-04-14T10:44:42.195Z,22.6
2023-04-14T10:50:33.994Z,22.4
2023-04-14T10:56:24.119Z,22.3
2023-04-14T11:02:18.463Z,22.1
2023-04-14T11:08:12.359Z,21.9
2023-04-14T11:13:50.482Z,21.8
2023-04-14T11:19:53.055Z,21.7
2023-04-14T11:25:44.411Z,21.6
2023-04-14T11:31:38.023Z,21.4
2023-04-14T11:37:29.452Z,21.4
2023-04-14T11:43:05.736Z,21.3
2023-04-14T11:48:57.542Z,21.3
2023-04-14T11:54:33.733Z,21.2
2023-04-14T12:11:43.645Z,21.1
2023-04-14T12:17:20.129Z,21
2023-04-14T12:22:25.955Z,21
2023-04-14T12:28:17.956Z,20.9
2023-04-14T12:34:11.316Z,20.9
2023-04-14T12:40:03.016Z,20.9
2023-04-14T12:45:38.879Z,20.9
2023-04-14T12:51:31.930Z,20.9
2023-04-14T12:57:23.986Z,20.8
2023-04-14T13:03:19.130Z,20.8
2023-04-14T13:09:12.037Z,20.8
2023-04-14T13:15:05.335Z,20.8
2023-04-14T13:21:53.343Z,20.8
2023-04-14T13:27:46.177Z,20.7
2023-04-14T13:33:23.377Z,20.8
2023-04-14T13:39:16.218Z,20.7
2023-04-14T13:45:10.230Z,20.7
2023-04-14T13:51:05.580Z,20.7
2023-04-14T13:56:57.461Z,20.7
2023-04-14T14:02:52.424Z,20.7
2023-04-14T14:08:47.343Z,20.6
2023-04-14T14:14:41.917Z,20.6
2023-04-14T14:20:28.434Z,20.6
2023-04-14T14:26:17.373Z,20.6
2023-04-14T14:32:12.632Z,20.6
2023-04-14T14:38:05.882Z,20.6
2023-04-14T14:43:59.208Z,20.6
2023-04-14T14:50:04.333Z,20.6
2023-04-14T14:56:06.926Z,20.6
2023-04-14T15:01:43.337Z,20.6
2023-04-14T15:07:36.930Z,20.6
2023-04-14T15:13:28.972Z,20.6
2023-04-14T15:19:20.973Z,20.5
2023-04-14T15:25:12.630Z,20.5
2023-04-14T15:31:04.062Z,20.6
2023-04-14T15:36:56.216Z,20.6
2023-04-14T15:42:48.593Z,20.6
2023-04-14T15:48:42.836Z,20.6
2023-04-14T15:54:53.675Z,20.6
2023-04-14T16:00:45.405Z,20.6
2023-04-14T16:06:39.031Z,20.6
2023-04-14T16:12:30.814Z,20.6
2023-04-14T16:18:24.719Z,20.6
2023-04-14T16:24:17.763Z,20.6
2023-04-14T16:30:09.661Z,20.6
2023-04-14T16:36:01.506Z,20.6
2023-04-14T16:41:53.457Z,20.7
2023-04-14T16:47:45.584Z,20.7
2023-04-14T16:53:37.778Z,20.7
2023-04-14T16:59:29.617Z,20.6
2023-04-14T17:05:27.359Z,20.6
2023-04-14T17:11:19.116Z,20.6
2023-04-14T17:17:18.715Z,20.6
2023-04-14T17:23:11.729Z,20.6
2023-04-14T17:29:03.575Z,20.6
2023-04-14T17:34:55.751Z,20.6
2023-04-14T17:40:47.212Z,20.6
2023-04-14T17:46:39.360Z,20.6
2023-04-14T17:52:16.996Z,20.6
2023-04-14T17:58:08.813Z,20.6
2023-04-14T18:04:02.452Z,20.6
2023-04-14T18:09:54.156Z,20.5
2023-04-14T18:15:45.420Z,20.5
2023-04-14T18:21:37.122Z,20.5
2023-04-14T18:33:46.276Z,20.5
2023-04-14T18:39:38.303Z,20.4
2023-04-14T18:45:29.971Z,20.4
2023-04-14T18:51:06.102Z,20.4
2023-04-14T18:57:08.461Z,20.4
2023-04-14T19:02:45.111Z,20.4
2023-04-14T19:08:37.204Z,20.4
2023-04-14T19:14:24.966Z,20.4
2023-04-14T19:20:01.725Z,20.3
2023-04-14T19:25:37.786Z,20.3
2023-04-14T19:31:15.172Z,20.3
2023-04-14T19:36:52.280Z,20.3
2023-04-14T19:42:44.043Z,20.3
2023-04-14T19:48:32.419Z,20.3
2023-04-14T19:54:24.179Z,20.3
2023-04-14T20:00:17.342Z,20.3
2023-04-14T20:06:41.051Z,20.3
2023-04-14T20:12:32.828Z,20.3
2023-04-14T20:18:24.306Z,20.3
2023-04-14T20:24:15.877Z,20.3
2023-04-14T20:30:08.050Z,20.2
2023-04-14T20:36:00.027Z,20.2
2023-04-14T20:41:51.175Z,22.1
2023-04-14T20:47:43.188Z,29.9
2023-04-14T20:53:19.210Z,32.5
2023-04-14T20:59:09.509Z,31.3
2023-04-14T21:05:03.392Z,29.6
2023-04-14T21:11:32.847Z,32.5
2023-04-14T21:20:51.470Z,33.3
2023-04-14T21:26:42.624Z,30.1
2023-04-14T21:32:33.784Z,30.9
2023-04-14T21:38:10.203Z,33.4
2023-04-14T21:43:46.575Z,31.6
2023-04-14T21:49:37.465Z,30.1
2023-04-14T21:55:31.105Z,29.2
2023-04-14T22:02:12.170Z,31.6
2023-04-14T22:08:15.432Z,33.2
2023-04-14T22:14:08.589Z,30.7
2023-04-14T22:19:44.906Z,29.6
2023-04-14T22:25:20.354Z,28.8
2023-04-14T22:30:57.705Z,31.3
2023-04-14T22:36:33.945Z,33.6
2023-04-14T22:42:25.740Z,31
2023-04-14T22:48:18.049Z,29.7
2023-04-14T22:54:16.088Z,28.8
2023-04-14T23:00:07.600Z,29.1
2023-04-14T23:06:11.628Z,32.8
2023-04-14T23:12:03.890Z,31.6
2023-04-14T23:17:54.254Z,29.9
2023-04-14T23:23:45.394Z,29
2023-04-14T23:29:22.354Z,28.2
2023-04-14T23:35:13.572Z,31.1
2023-04-14T23:41:05.568Z,33.2
2023-04-14T23:46:56.950Z,30.6
2023-04-14T23:53:46.780Z,29.4
2023-04-14T23:59:34.844Z,28.5
